Time;durP1;ratioP1;P1;durP2;ratioP2;P2;SDS_P1;SDS_P2;PMS_P1;PMS_P2;Temp;Humidity;BMP_temperature;BMP_pressure;BME280_temperature;BME280_humidity;BME280_pressure;Samples;Min_cycle;Max_cycle;Signal;HPM_P1;HPM_P2
2023/10/10 00:01:03;;;;;;;4.10;2.08;;;14.30;99.90;;;;;;5035250;28;20877;-56
2023/10/10 00:03:33;;;;;;;2.28;1.83;;;14.30;99.90;;;;;;5038562;28;20030;-57
2023/10/10 00:05:59;;;;;;;3.78;1.80;;;14.30;99.90;;;;;;5041267;28;20021;-56
2023/10/10 00:08:44;;;;;;;1.90;1.63;;;14.30;99.90;;;;;;5033600;28;20017;-56
2023/10/10 00:11:14;;;;;;;5.35;2.10;;;14.30;99.90;;;;;;5033077;28;20394;-56
2023/10/10 00:13:43;;;;;;;4.50;2.17;;;14.30;99.90;;;;;;5039077;28;20021;-57
2023/10/10 00:16:35;;;;;;;7.78;3.00;;;14.20;99.90;;;;;;5035178;28;20030;-56
2023/10/10 00:19:17;;;;;;;5.38;2.72;;;14.20;99.90;;;;;;5035874;28;20034;-57
2023/10/10 00:21:43;;;;;;;11.25;2.60;;;14.20;99.90;;;;;;5032138;28;20076;-57
2023/10/10 00:24:12;;;;;;;7.97;2.40;;;14.20;99.90;;;;;;5034850;28;20057;-57
2023/10/10 00:26:43;;;;;;;5.15;2.53;;;14.10;99.90;;;;;;5039674;28;20430;-57
2023/10/10 00:29:09;;;;;;;4.53;2.60;;;14.10;99.90;;;;;;5040967;28;20021;-57
2023/10/10 00:31:43;;;;;;;7.70;3.22;;;14.10;99.90;;;;;;5033369;28;20083;-57
2023/10/10 00:34:09;;;;;;;6.50;2.58;;;14.10;99.90;;;;;;5032822;28;20040;-57
2023/10/10 00:36:35;;;;;;;8.63;2.70;;;14.10;99.90;;;;;;5033737;28;20029;-57
2023/10/10 00:39:22;;;;;;;5.65;2.50;;;14.10;99.90;;;;;;5035339;28;20504;-56
2023/10/10 00:41:53;;;;;;;10.27;3.50;;;14.10;99.90;;;;;;5038127;28;20025;-57
2023/10/10 00:44:19;;;;;;;4.90;3.03;;;14.10;99.90;;;;;;5039655;28;20482;-57
2023/10/10 00:46:47;;;;;;;4.38;2.25;;;14.20;99.90;;;;;;5033897;28;20029;-57
2023/10/10 00:49:14;;;;;;;7.53;2.78;;;14.10;99.90;;;;;;5034568;28;20040;-57
2023/10/10 00:51:41;;;;;;;8.07;2.83;;;14.10;99.90;;;;;;5033463;28;20014;-57
2023/10/10 00:54:43;;;;;;;6.30;2.80;;;14.20;99.90;;;;;;5038998;28;20032;-58
2023/10/10 00:57:00;;;;;;;5.43;2.75;;;14.10;99.90;;;;;;5031160;28;20040;-57
2023/10/10 00:59:42;;;;;;;5.82;3.10;;;14.20;99.90;;;;;;5033618;28;20009;-56
2023/10/10 01:02:10;;;;;;;5.00;2.47;;;14.10;99.90;;;;;;5045356;28;20390;-56
2023/10/10 01:04:39;;;;;;;5.90;2.88;;;14.20;99.90;;;;;;5033374;28;20048;-56
2023/10/10 01:07:08;;;;;;;11.10;3.22;;;14.20;99.90;;;;;;5036703;28;20055;-57
2023/10/10 01:09:39;;;;;;;3.75;2.20;;;14.10;99.90;;;;;;5044535;28;20372;-57
2023/10/10 01:12:05;;;;;;;5.85;2.67;;;14.10;99.90;;;;;;5039176;28;20025;-57
2023/10/10 01:14:31;;;;;;;7.88;3.03;;;14.10;99.90;;;;;;5041337;28;20033;-57
2023/10/10 01:17:00;;;;;;;5.88;2.63;;;14.10;99.90;;;;;;5043340;28;20532;-56
2023/10/10 01:19:28;;;;;;;2.67;2.08;;;14.20;99.90;;;;;;5039990;28;20080;-57
2023/10/10 01:21:58;;;;;;;5.43;2.92;;;14.10;99.90;;;;;;5035440;28;20017;-57
2023/10/10 01:24:27;;;;;;;6.70;3.00;;;14.20;99.90;;;;;;5041715;28;20033;-56
2023/10/10 01:27:03;;;;;;;3.45;2.40;;;14.20;99.90;;;;;;5039618;28;20033;-56
2023/10/10 01:29:37;;;;;;;4.68;2.95;;;14.10;99.90;;;;;;5043287;28;20028;-57
2023/10/10 01:32:04;;;;;;;4.55;2.40;;;14.20;99.90;;;;;;5040213;28;20252;-56
2023/10/10 01:34:45;;;;;;;9.07;2.63;;;14.20;99.90;;;;;;5037232;28;20028;-56
2023/10/10 01:37:14;;;;;;;6.32;2.92;;;14.20;99.90;;;;;;5039162;28;20100;-56
2023/10/10 01:40:16;;;;;;;2.88;2.30;;;14.10;99.90;;;;;;5052113;28;20155;-56
2023/10/10 01:42:51;;;;;;;6.85;3.22;;;14.20;99.90;;;;;;5036484;28;20483;-56
2023/10/10 01:45:19;;;;;;;5.82;2.75;;;14.20;99.90;;;;;;5044334;28;20037;-56
2023/10/10 01:47:56;;;;;;;10.23;2.70;;;14.10;99.90;;;;;;5036686;28;20048;-56
2023/10/10 01:50:23;;;;;;;5.05;2.53;;;14.10;99.90;;;;;;5041714;28;20029;-56
2023/10/10 01:52:50;;;;;;;7.05;2.63;;;14.10;99.90;;;;;;5044071;28;20028;-56
2023/10/10 01:55:18;;;;;;;5.50;2.50;;;14.10;99.90;;;;;;5046236;28;20028;-56
2023/10/10 01:57:44;;;;;;;7.63;2.75;;;14.10;99.90;;;;;;5043590;28;20216;-56
2023/10/10 02:00:26;;;;;;;5.47;2.92;;;14.10;99.90;;;;;;5040175;28;20024;-55
2023/10/10 02:02:55;;;;;;;10.23;3.78;;;14.10;99.90;;;;;;5048487;28;20158;-57
2023/10/10 02:08:16;;;;;;;9.55;3.60;;;14.00;99.90;;;;;;5046174;28;20035;-56
2023/10/10 02:10:46;;;;;;;4.47;3.25;;;14.00;99.90;;;;;;5038041;28;20020;-57
2023/10/10 02:13:12;;;;;;;3.85;3.40;;;14.00;99.90;;;;;;5039864;28;20031;-57
2023/10/10 02:15:39;;;;;;;7.70;4.00;;;14.00;99.90;;;;;;5037541;28;20101;-57
2023/10/10 02:18:51;;;;;;;10.70;4.10;;;14.00;99.90;;;;;;5040647;28;20020;-57
2023/10/10 02:20:52;;;;;;;5.45;3.78;;;14.00;99.90;;;;;;5032985;28;20029;-57
2023/10/10 02:23:31;;;;;;;7.57;4.07;;;14.00;99.90;;;;;;5042936;28;20025;-57
2023/10/10 02:26:03;;;;;;;7.60;4.40;;;14.00;99.90;;;;;;5039603;28;20048;-57
2023/10/10 02:31:28;;;;;;;5.75;3.83;;;13.90;99.90;;;;;;5017725;28;20490;-56
2023/10/10 02:34:02;;;;;;;9.45;4.25;;;13.90;99.90;;;;;;5037618;28;20025;-57
2023/10/10 02:36:31;;;;;;;8.55;4.30;;;13.80;99.90;;;;;;5043044;28;20017;-57
2023/10/10 02:42:01;;;;;;;7.88;4.60;;;13.80;99.90;;;;;;5035625;28;20095;-56
2023/10/10 02:44:38;;;;;;;6.85;5.00;;;13.80;99.90;;;;;;5050596;28;20116;-56
2023/10/10 02:47:04;;;;;;;7.93;4.85;;;13.80;99.90;;;;;;5043435;28;20017;-56
2023/10/10 02:49:30;;;;;;;8.30;4.50;;;13.80;99.90;;;;;;5040851;28;20017;-55
2023/10/10 02:51:56;;;;;;;8.95;4.60;;;13.80;99.90;;;;;;5045997;28;20462;-57
2023/10/10 02:56:57;;;;;;;8.68;4.72;;;13.80;99.90;;;;;;5050785;28;20498;-55
2023/10/10 02:59:37;;;;;;;8.18;5.78;;;13.80;99.90;;;;;;5037875;28;20494;-55
2023/10/10 03:02:10;;;;;;;9.73;5.57;;;13.80;99.90;;;;;;5040767;28;20056;-55
2023/10/10 03:07:27;;;;;;;13.27;6.45;;;13.80;99.90;;;;;;5034463;28;20094;-56
2023/10/10 03:12:42;;;;;;;12.75;5.75;;;13.80;99.90;;;;;;5045881;28;20517;-56
2023/10/10 03:23:23;;;;;;;11.85;6.05;;;13.90;99.90;;;;;;5039456;28;20088;-56
2023/10/10 03:25:54;;;;;;;11.23;6.45;;;13.90;99.90;;;;;;5038823;28;20022;-56
2023/10/10 03:31:23;;;;;;;16.95;7.10;;;13.90;99.90;;;;;;5045562;28;20116;-56
2023/10/10 03:34:04;;;;;;;16.77;6.38;;;13.90;99.90;;;;;;5042502;28;20013;-56
2023/10/10 03:36:43;;;;;;;16.13;6.53;;;13.90;99.90;;;;;;5038943;28;20163;-56
2023/10/10 05:23:30;;;;;;;8.25;3.63;;;14.00;99.90;;;;;;5045052;28;20437;-48
2023/10/10 05:25:55;;;;;;;6.70;3.47;;;14.00;99.90;;;;;;5044399;28;20119;-46
2023/10/10 05:28:22;;;;;;;5.32;3.47;;;14.00;99.90;;;;;;5044891;28;20554;-45
2023/10/10 05:30:47;;;;;;;7.88;3.95;;;14.00;99.90;;;;;;5052208;28;20031;-47
2023/10/10 05:33:14;;;;;;;5.35;3.42;;;14.00;99.90;;;;;;5044178;28;20537;-45
2023/10/10 05:35:48;;;;;;;6.05;3.22;;;14.00;99.90;;;;;;5038896;28;20860;-46
2023/10/10 05:38:15;;;;;;;4.75;3.10;;;14.00;99.90;;;;;;5042820;28;20045;-47
2023/10/10 05:40:43;;;;;;;9.02;3.80;;;14.00;99.90;;;;;;5045344;28;20521;-46
2023/10/10 05:43:13;;;;;;;8.43;3.72;;;14.00;99.90;;;;;;5042350;28;20017;-48
2023/10/10 05:45:39;;;;;;;6.68;3.28;;;14.00;99.90;;;;;;5039693;28;20048;-46
2023/10/10 05:48:08;;;;;;;5.50;2.88;;;14.10;99.90;;;;;;5040455;28;20052;-46
2023/10/10 05:50:34;;;;;;;6.85;3.85;;;14.10;99.90;;;;;;5037014;28;20047;-46
2023/10/10 05:53:06;;;;;;;9.88;3.38;;;14.10;99.90;;;;;;5041179;28;20112;-46
2023/10/10 05:55:33;;;;;;;7.13;3.60;;;14.10;99.90;;;;;;5041369;28;20029;-46
2023/10/10 05:58:02;;;;;;;6.88;3.15;;;14.10;99.90;;;;;;5042863;28;20233;-48
2023/10/10 06:00:36;;;;;;;5.32;3.47;;;14.10;99.90;;;;;;5045108;28;20489;-48
2023/10/10 06:03:06;;;;;;;5.90;3.42;;;14.20;99.90;;;;;;5045430;28;20049;-48
2023/10/10 06:05:34;;;;;;;8.88;3.38;;;14.20;99.90;;;;;;5041043;28;20040;-47
2023/10/10 06:08:01;;;;;;;4.88;3.38;;;14.20;99.90;;;;;;5044693;28;20021;-48
2023/10/10 06:10:31;;;;;;;4.90;3.30;;;14.20;99.90;;;;;;5042295;28;20029;-47
2023/10/10 06:12:57;;;;;;;5.18;2.83;;;14.20;99.90;;;;;;5044225;28;20401;-46
2023/10/10 06:15:23;;;;;;;3.70;2.83;;;14.20;99.90;;;;;;5042272;28;20112;-46
2023/10/10 06:17:49;;;;;;;7.22;3.17;;;14.30;99.90;;;;;;5040356;28;20100;-48
2023/10/10 06:20:21;;;;;;;5.93;3.75;;;14.30;99.90;;;;;;5039184;28;20029;-46
2023/10/10 06:22:47;;;;;;;8.43;3.55;;;14.30;99.90;;;;;;5042837;28;20017;-47
2023/10/10 06:25:17;;;;;;;7.88;4.07;;;14.30;99.90;;;;;;5042019;28;20111;-45
2023/10/10 06:27:56;;;;;;;7.00;3.83;;;14.30;99.90;;;;;;5045781;28;20051;-46
2023/10/10 06:30:24;;;;;;;6.38;4.15;;;14.40;99.90;;;;;;5041108;28;20025;-46
2023/10/10 06:32:50;;;;;;;7.63;4.20;;;14.40;99.90;;;;;;5044159;28;20420;-48
2023/10/10 06:37:51;;;;;;;6.93;3.83;;;14.40;99.90;;;;;;5043600;28;20017;-46
2023/10/10 06:40:24;;;;;;;9.90;4.55;;;14.50;99.90;;;;;;5041184;28;20029;-49
2023/10/10 06:42:54;;;;;;;9.75;4.47;;;14.50;99.90;;;;;;5041489;28;20264;-49
2023/10/10 06:45:22;;;;;;;8.40;4.50;;;14.50;99.90;;;;;;5038771;28;20028;-48
2023/10/10 06:47:50;;;;;;;12.98;5.35;;;14.50;99.90;;;;;;5042956;28;20490;-47
2023/10/10 06:50:21;;;;;;;9.32;5.07;;;14.50;99.90;;;;;;5048125;28;20029;-46
2023/10/10 06:52:52;;;;;;;9.38;5.13;;;14.50;99.90;;;;;;5041061;28;20442;-48
2023/10/10 06:55:22;;;;;;;21.38;5.93;;;14.60;99.90;;;;;;5041113;28;20044;-46
2023/10/10 06:58:00;;;;;;;9.23;5.50;;;14.60;99.90;;;;;;5044782;28;20052;-46
2023/10/10 07:00:53;;;;;;;11.23;5.38;;;14.60;99.90;;;;;;5045300;28;20044;-48
2023/10/10 07:03:18;;;;;;;12.25;5.30;;;14.70;99.90;;;;;;5038106;28;20064;-46
2023/10/10 07:05:45;;;;;;;9.75;5.70;;;14.80;99.90;;;;;;5040618;28;20033;-49
2023/10/10 07:08:19;;;;;;;7.57;4.80;;;14.80;99.90;;;;;;5042328;28;20474;-49
2023/10/10 07:10:45;;;;;;;10.15;5.30;;;14.80;99.90;;;;;;5042241;28;20037;-48
2023/10/10 07:13:14;;;;;;;13.45;5.38;;;14.90;99.90;;;;;;5037198;28;20017;-47
2023/10/10 07:15:50;;;;;;;8.50;5.20;;;14.90;99.90;;;;;;5038840;28;20390;-46
2023/10/10 07:18:22;;;;;;;12.77;5.38;;;14.90;99.90;;;;;;5045242;28;20267;-48
2023/10/10 07:21:04;;;;;;;15.45;5.50;;;14.90;99.90;;;;;;5046768;28;20401;-49
2023/10/10 07:23:37;;;;;;;10.38;4.95;;;15.00;99.90;;;;;;5044215;28;20021;-46
2023/10/10 07:26:25;;;;;;;9.30;4.22;;;15.00;99.90;;;;;;5039997;28;20036;-46
2023/10/10 07:28:54;;;;;;;7.03;5.22;;;15.10;99.90;;;;;;5045385;28;20021;-47
2023/10/10 07:31:21;;;;;;;11.05;5.25;;;15.10;99.90;;;;;;5044963;28;20455;-47
2023/10/10 07:33:55;;;;;;;6.65;4.30;;;15.30;99.90;;;;;;5043356;28;20026;-45
2023/10/10 07:36:25;;;;;;;6.07;4.25;;;15.40;99.90;;;;;;5046067;28;20394;-46
2023/10/10 07:38:54;;;;;;;6.57;3.65;;;15.50;99.90;;;;;;5047741;28;20071;-45
2023/10/10 07:41:28;;;;;;;7.97;4.45;;;15.60;99.90;;;;;;5045658;28;20071;-47
2023/10/10 07:43:58;;;;;;;4.38;3.40;;;15.60;99.90;;;;;;5044067;28;20101;-46
2023/10/10 07:46:27;;;;;;;6.50;3.17;;;15.70;99.90;;;;;;5047834;28;20018;-46
2023/10/10 07:48:54;;;;;;;5.65;3.05;;;15.90;99.90;;;;;;5045108;28;20026;-48
2023/10/10 07:51:29;;;;;;;7.75;3.60;;;16.00;99.90;;;;;;5045161;28;20024;-46
2023/10/10 07:54:12;;;;;;;4.70;2.33;;;16.20;99.90;;;;;;5046775;28;20101;-47
2023/10/10 07:56:45;;;;;;;5.80;2.75;;;16.30;99.90;;;;;;5044141;28;20028;-45
2023/10/10 07:59:12;;;;;;;2.53;2.20;;;16.40;99.90;;;;;;5039459;28;20629;-49
2023/10/10 08:01:38;;;;;;;5.05;3.00;;;16.40;99.90;;;;;;5044383;28;20536;-49
2023/10/10 08:04:04;;;;;;;3.25;2.70;;;16.40;99.90;;;;;;5044372;28;20067;-48
2023/10/10 08:06:33;;;;;;;4.63;2.25;;;16.40;99.90;;;;;;5045689;28;20029;-46
2023/10/10 08:11:43;;;;;;;5.30;2.90;;;16.40;99.90;;;;;;5044317;28;20462;-47
2023/10/10 08:14:09;;;;;;;4.55;3.00;;;16.40;99.90;;;;;;5036600;28;20029;-46
2023/10/10 08:16:36;;;;;;;7.65;3.03;;;16.30;99.90;;;;;;5042133;28;20063;-49
2023/10/10 08:19:06;;;;;;;3.35;2.42;;;16.30;99.90;;;;;;5041739;28;20029;-48
2023/10/10 08:21:36;;;;;;;5.10;2.72;;;16.40;99.90;;;;;;5045483;28;20032;-49
2023/10/10 08:24:03;;;;;;;6.60;2.50;;;16.40;99.90;;;;;;5037473;28;20657;-46
2023/10/10 08:26:29;;;;;;;2.97;2.33;;;16.20;99.90;;;;;;5036226;28;20017;-43
2023/10/10 08:28:55;;;;;;;6.00;2.97;;;16.30;99.90;;;;;;5040967;28;20029;-44
2023/10/10 08:31:22;;;;;;;4.68;2.70;;;16.40;99.90;;;;;;5039758;28;20029;-44
2023/10/10 08:33:49;;;;;;;3.72;2.33;;;16.40;99.90;;;;;;5041704;28;20025;-46
2023/10/10 08:36:25;;;;;;;3.72;2.63;;;16.50;99.90;;;;;;5040883;28;20029;-46
2023/10/10 08:38:54;;;;;;;3.00;2.13;;;16.70;99.90;;;;;;5043362;28;20031;-46
2023/10/10 08:41:22;;;;;;;4.38;2.08;;;16.70;99.90;;;;;;5039026;28;20498;-46
2023/10/10 08:43:53;;;;;;;4.13;2.67;;;16.70;99.90;;;;;;5038026;28;20013;-45
2023/10/10 08:46:23;;;;;;;4.75;2.05;;;16.70;99.90;;;;;;5039779;28;20106;-47
2023/10/10 08:48:49;;;;;;;;;;;16.70;99.90;;;;;;5042453;28;20017;-46
2023/10/10 08:51:15;;;;;;;4.65;2.30;;;16.80;99.90;;;;;;5037576;28;19917;-47
2023/10/10 08:53:41;;;;;;;3.13;2.13;;;16.90;99.90;;;;;;5040660;28;20104;-46
2023/10/10 08:56:06;;;;;;;6.50;2.25;;;16.90;99.90;;;;;;5042530;28;20035;-45
2023/10/10 08:58:32;;;;;;;5.00;2.08;;;16.90;99.90;;;;;;5043146;28;20028;-48
2023/10/10 09:01:01;;;;;;;7.15;2.28;;;16.90;99.90;;;;;;5043227;28;20053;-48
2023/10/10 09:03:27;;;;;;;4.72;1.98;;;16.90;99.90;;;;;;5037207;28;20058;-46
2023/10/10 09:05:52;;;;;;;2.88;2.28;;;16.90;99.90;;;;;;5039953;28;20025;-47
2023/10/10 09:08:26;;;;;;;2.20;2.00;;;17.00;99.90;;;;;;5037567;28;20048;-45
2023/10/10 09:10:56;;;;;;;5.90;1.88;;;17.20;99.90;;;;;;5034053;28;20029;-45
2023/10/10 09:13:21;;;;;;;4.50;2.20;;;17.20;99.90;;;;;;5044712;28;20309;-46
2023/10/10 09:15:56;;;;;;;5.57;2.85;;;17.20;99.90;;;;;;5038209;28;20095;-49
2023/10/10 09:18:23;;;;;;;7.10;2.72;;;17.20;99.90;;;;;;5046305;28;20017;-48
2023/10/10 09:20:53;;;;;;;3.10;2.10;;;17.10;99.90;;;;;;5036766;28;20014;-46
2023/10/10 09:23:21;;;;;;;2.75;2.03;;;17.10;99.90;;;;;;5043267;28;20024;-47
2023/10/10 09:25:49;;;;;;;6.43;2.28;;;17.10;99.90;;;;;;5043881;28;20517;-45
2023/10/10 09:28:16;;;;;;;3.40;3.03;;;17.10;99.90;;;;;;5046647;28;20082;-47
2023/10/10 09:30:59;;;;;;;3.88;3.40;;;17.10;99.90;;;;;;5039282;28;20029;-46
2023/10/10 09:33:33;;;;;;;4.60;2.45;;;17.00;99.90;;;;;;5036599;28;20360;-45
2023/10/10 09:36:09;;;;;;;8.52;3.65;;;16.90;99.90;;;;;;5045467;28;20475;-46
2023/10/10 09:38:45;;;;;;;5.88;3.40;;;16.80;99.90;;;;;;5047441;28;20025;-44
2023/10/10 09:41:26;;;;;;;5.13;3.75;;;16.70;99.90;;;;;;5035590;28;20028;-47
2023/10/10 09:47:13;;;;;;;6.63;3.58;;;16.60;99.90;;;;;;5049550;28;20548;-49
2023/10/10 09:49:45;;;;;;;5.10;3.63;;;16.70;99.90;;;;;;5044819;28;20056;-49
2023/10/10 09:58:15;;;;;;;9.30;4.80;;;17.00;99.90;;;;;;5047684;28;20029;-49
2023/10/10 10:03:31;;;;;;;6.75;5.15;;;17.00;99.90;;;;;;5039780;28;20094;-46
2023/10/10 10:09:16;;;;;;;9.00;5.40;;;17.10;99.90;;;;;;5048973;28;20025;-47
2023/10/10 10:11:51;;;;;;;8.25;5.65;;;17.10;99.90;;;;;;5049161;28;20044;-47
2023/10/10 10:14:46;;;;;;;11.10;6.93;;;17.10;99.90;;;;;;5048537;28;20021;-46
2023/10/10 10:17:30;;;;;;;13.60;7.65;;;17.10;99.90;;;;;;5045625;28;20021;-47
2023/10/10 10:20:20;;;;;;;10.65;8.20;;;17.20;99.90;;;;;;5043040;28;20471;-48
2023/10/10 10:22:48;;;;;;;9.95;6.35;;;17.20;99.90;;;;;;5041281;28;20029;-48
2023/10/10 10:25:25;;;;;;;11.23;7.53;;;17.30;99.90;;;;;;5041447;28;20502;-46
2023/10/10 10:28:00;;;;;;;9.90;7.47;;;17.30;99.90;;;;;;5044166;28;20389;-46
2023/10/10 10:32:54;;;;;;;9.27;6.72;;;17.30;99.90;;;;;;5049865;28;20036;-45
2023/10/10 10:35:22;;;;;;;10.80;7.13;;;17.40;99.90;;;;;;5050442;28;20285;-48
2023/10/10 10:37:59;;;;;;;9.73;7.18;;;17.50;99.90;;;;;;5050268;28;20036;-46
2023/10/10 10:43:16;;;;;;;9.77;7.57;;;17.90;99.90;;;;;;5045741;28;20052;-46
2023/10/10 10:45:45;;;;;;;9.60;6.70;;;18.20;99.90;;;;;;5040269;28;20017;-48
2023/10/10 10:51:02;;;;;;;10.68;7.15;;;18.60;99.90;;;;;;5048721;28;20025;-48
2023/10/10 10:53:38;;;;;;;12.63;7.22;;;18.80;99.90;;;;;;5048802;28;20597;-49
2023/10/10 11:01:28;;;;;;;9.15;6.60;;;18.80;99.90;;;;;;5050572;28;20467;-49
2023/10/10 11:03:57;;;;;;;10.15;6.85;;;18.80;99.90;;;;;;5049638;28;20033;-46
2023/10/10 11:06:28;;;;;;;10.00;6.80;;;18.80;99.90;;;;;;5049077;28;20029;-46
2023/10/10 11:09:08;;;;;;;13.93;6.55;;;18.90;99.90;;;;;;5045509;28;20029;-47
2023/10/10 11:14:05;;;;;;;8.63;5.82;;;18.90;99.90;;;;;;5037810;28;20135;-47
2023/10/10 11:16:37;;;;;;;9.20;5.88;;;19.00;99.90;;;;;;5046414;28;20046;-47
2023/10/10 11:19:53;;;;;;;8.02;5.32;;;19.00;99.90;;;;;;5038330;28;20052;-48
2023/10/10 11:22:00;;;;;;;10.57;5.03;;;19.20;99.90;;;;;;5035287;28;20033;-46
2023/10/10 11:24:29;;;;;;;8.38;5.18;;;19.10;99.90;;;;;;5033035;28;20029;-48
2023/10/10 11:29:45;;;;;;;6.90;4.93;;;19.10;99.90;;;;;;5036866;28;20021;-49
2023/10/10 11:32:13;;;;;;;11.73;4.88;;;18.90;99.90;;;;;;5033868;28;20494;-47
2023/10/10 11:34:42;;;;;;;7.10;5.25;;;18.80;99.90;;;;;;5036137;28;20372;-46
2023/10/10 11:37:23;;;;;;;8.27;6.68;;;18.80;99.90;;;;;;5033034;28;20025;-48
2023/10/10 11:40:19;;;;;;;8.40;5.68;;;18.60;99.90;;;;;;5029629;28;20037;-45
2023/10/10 11:42:47;;;;;;;8.55;5.22;;;19.00;99.90;;;;;;5039293;28;20059;-47
2023/10/10 11:45:19;;;;;;;8.20;4.72;;;19.20;99.90;;;;;;5044301;28;20048;-46
2023/10/10 11:47:45;;;;;;;6.60;4.72;;;19.40;99.90;;;;;;5030317;28;20425;-47
2023/10/10 11:50:13;;;;;;;6.65;4.97;;;19.60;99.90;;;;;;5030474;28;20022;-48
2023/10/10 11:52:52;;;;;;;7.35;4.60;;;20.80;99.90;;;;;;5030481;28;20029;-46
2023/10/10 11:55:28;;;;;;;4.18;3.40;;;22.20;99.90;;;;;;5030492;28;20457;-48
2023/10/10 11:57:58;;;;;;;6.32;3.80;;;23.60;99.90;;;;;;5037255;28;20033;-49
2023/10/10 12:00:42;;;;;;;5.47;4.13;;;24.70;99.90;;;;;;5030475;28;20041;-49
2023/10/10 12:03:23;;;;;;;7.82;4.35;;;24.60;99.90;;;;;;5031992;28;20025;-47
2023/10/10 12:05:49;;;;;;;5.15;3.95;;;24.60;99.90;;;;;;5030678;28;20060;-47
2023/10/10 12:08:22;;;;;;;7.85;4.13;;;24.40;99.90;;;;;;5031143;28;20021;-46
2023/10/10 12:10:52;;;;;;;6.53;3.45;;;24.40;99.90;;;;;;5032119;28;20025;-47
2023/10/10 12:15:57;;;;;;;8.02;3.60;;;24.50;98.90;;;;;;5030657;28;20292;-46
2023/10/10 12:18:30;;;;;;;8.65;4.15;;;23.90;99.50;;;;;;5031081;28;20440;-50
2023/10/10 12:20:57;;;;;;;7.57;3.55;;;23.60;99.90;;;;;;5032401;28;20021;-49
2023/10/10 12:23:23;;;;;;;7.40;4.10;;;23.00;99.90;;;;;;5039906;28;20049;-45
2023/10/10 12:25:49;;;;;;;10.15;4.00;;;22.50;99.90;;;;;;5033605;28;20017;-45
2023/10/10 12:28:17;;;;;;;9.48;3.80;;;22.20;99.90;;;;;;5043329;28;20104;-48
2023/10/10 12:30:43;;;;;;;7.13;4.50;;;22.20;99.90;;;;;;5044935;28;20032;-46
2023/10/10 12:33:19;;;;;;;7.30;5.03;;;22.20;99.90;;;;;;5031283;28;20029;-45
2023/10/10 12:35:48;;;;;;;8.95;4.28;;;21.80;99.90;;;;;;5030908;28;20403;-46
2023/10/10 12:38:15;;;;;;;7.38;3.90;;;21.50;99.90;;;;;;5037738;28;20018;-47
2023/10/10 12:40:43;;;;;;;12.52;5.43;;;21.30;99.90;;;;;;5041380;28;20029;-45
2023/10/10 12:43:11;;;;;;;8.68;4.47;;;21.10;99.90;;;;;;5040227;28;20414;-47
2023/10/10 12:45:37;;;;;;;9.43;4.47;;;20.90;99.90;;;;;;5031057;28;20419;-45
2023/10/10 12:48:04;;;;;;;7.88;4.20;;;20.70;99.90;;;;;;5031771;28;20040;-46
2023/10/10 12:50:30;;;;;;;6.70;4.20;;;21.20;99.90;;;;;;5030866;28;20034;-48
2023/10/10 12:53:08;;;;;;;5.75;4.03;;;21.30;99.90;;;;;;5037357;28;20033;-46
2023/10/10 12:55:48;;;;;;;8.93;4.22;;;21.30;99.90;;;;;;5040856;28;20036;-46
2023/10/10 12:58:20;;;;;;;8.57;5.07;;;21.30;99.90;;;;;;5034486;28;20078;-46
2023/10/10 13:00:52;;;;;;;5.97;3.90;;;21.30;99.90;;;;;;5031441;28;20117;-46
2023/10/10 13:03:27;;;;;;;10.90;4.40;;;21.00;99.90;;;;;;5047423;28;20547;-47
2023/10/10 13:06:00;;;;;;;9.32;4.38;;;20.70;99.90;;;;;;5034229;28;20075;-45
2023/10/10 13:08:38;;;;;;;8.77;4.13;;;20.50;99.90;;;;;;5031257;28;20030;-46
2023/10/10 13:11:32;;;;;;;6.47;4.30;;;20.40;99.90;;;;;;5045583;28;20044;-45
2023/10/10 13:14:08;;;;;;;8.15;4.32;;;20.30;99.90;;;;;;5033449;28;20507;-46
2023/10/10 13:19:09;;;;;;;5.32;4.53;;;20.30;99.90;;;;;;5033446;28;20111;-46
2023/10/10 13:21:38;;;;;;;10.88;5.00;;;20.30;99.90;;;;;;5035064;28;20072;-48
2023/10/10 13:24:10;;;;;;;8.00;4.90;;;20.20;99.90;;;;;;5034724;28;20021;-46
2023/10/10 13:26:39;;;;;;;10.52;5.63;;;20.20;99.90;;;;;;5035197;28;20056;-45
2023/10/10 13:29:08;;;;;;;8.48;4.60;;;20.00;99.90;;;;;;5039796;28;20029;-48
2023/10/10 13:31:34;;;;;;;10.13;5.35;;;20.00;99.90;;;;;;5042616;28;20033;-45
2023/10/10 13:34:00;;;;;;;8.63;5.53;;;20.00;99.90;;;;;;5039485;28;20381;-46
2023/10/10 13:36:25;;;;;;;12.00;6.30;;;20.00;99.90;;;;;;5048260;28;20022;-45
2023/10/10 13:38:57;;;;;;;8.13;5.45;;;19.90;99.90;;;;;;5036629;28;20045;-47
2023/10/10 13:41:27;;;;;;;11.63;6.68;;;19.80;99.90;;;;;;5039508;28;20091;-47
2023/10/10 13:43:53;;;;;;;15.07;7.15;;;19.90;99.90;;;;;;5042793;28;20078;-47
2023/10/10 13:46:22;;;;;;;8.55;6.70;;;19.80;99.90;;;;;;5044051;28;20040;-45
2023/10/10 13:48:49;;;;;;;9.73;7.72;;;19.80;99.90;;;;;;5039465;28;20041;-48
2023/10/10 13:51:16;;;;;;;13.23;7.20;;;19.70;99.90;;;;;;5035877;28;20033;-47
2023/10/10 13:53:44;;;;;;;14.25;8.38;;;19.60;99.90;;;;;;5035434;28;20277;-46
2023/10/10 13:56:12;;;;;;;12.52;9.10;;;19.50;99.90;;;;;;5038794;28;20029;-45
2023/10/10 13:58:40;;;;;;;11.23;8.73;;;19.40;99.90;;;;;;5035694;28;20459;-47
2023/10/10 14:01:29;;;;;;;10.43;8.30;;;19.40;99.90;;;;;;5036875;28;20505;-47
2023/10/10 14:04:15;;;;;;;15.73;10.30;;;19.50;99.90;;;;;;5035403;28;20029;-46
2023/10/10 14:06:47;;;;;;;15.80;10.00;;;19.50;99.90;;;;;;5039953;28;20110;-49
2023/10/10 14:09:26;;;;;;;19.40;10.80;;;19.40;99.90;;;;;;5034871;28;20513;-48
2023/10/10 14:11:56;;;;;;;11.63;9.32;;;19.40;99.90;;;;;;5039275;28;20529;-49
2023/10/10 14:14:22;;;;;;;16.77;11.00;;;19.40;99.90;;;;;;5038544;28;20399;-45
2023/10/10 14:16:48;;;;;;;15.52;10.98;;;19.30;99.90;;;;;;5035678;28;20033;-45
2023/10/10 14:19:13;;;;;;;14.00;9.70;;;19.40;99.90;;;;;;5036317;28;20035;-46
2023/10/10 14:21:39;;;;;;;18.60;11.02;;;19.30;99.90;;;;;;5039853;28;20030;-47
2023/10/10 14:24:06;;;;;;;16.77;11.20;;;19.20;99.90;;;;;;5041646;28;20078;-48
2023/10/10 14:26:34;;;;;;;12.70;10.70;;;19.10;99.90;;;;;;5039247;28;20033;-46
2023/10/10 14:29:06;;;;;;;12.48;10.95;;;19.10;99.90;;;;;;5037135;28;20104;-47
2023/10/10 14:31:34;;;;;;;12.88;10.52;;;19.10;99.90;;;;;;5038194;28;20013;-45
2023/10/10 14:34:00;;;;;;;13.95;10.98;;;19.10;99.90;;;;;;5037127;28;20071;-45
2023/10/10 14:36:29;;;;;;;13.63;10.88;;;19.10;99.90;;;;;;5039971;28;20014;-45
2023/10/10 14:38:57;;;;;;;10.68;9.57;;;19.10;99.90;;;;;;5036876;28;20028;-46
2023/10/10 14:41:23;;;;;;;16.40;11.85;;;19.10;99.90;;;;;;5035438;28;20025;-45
2023/10/10 14:43:52;;;;;;;15.65;11.93;;;19.10;99.90;;;;;;5037748;28;20101;-46
2023/10/10 14:46:21;;;;;;;15.90;11.73;;;19.10;99.90;;;;;;5040875;28;20025;-47
2023/10/10 14:48:50;;;;;;;15.88;12.20;;;19.20;99.90;;;;;;5034112;28;20037;-48
2023/10/10 14:51:18;;;;;;;15.20;12.32;;;19.20;99.90;;;;;;5040625;28;20475;-46
2023/10/10 14:53:51;;;;;;;14.25;11.95;;;19.10;99.90;;;;;;5036867;28;20041;-45
2023/10/10 14:56:22;;;;;;;16.98;11.70;;;19.10;99.90;;;;;;5033694;28;20100;-46
2023/10/10 14:58:48;;;;;;;18.83;11.73;;;19.20;99.90;;;;;;5040079;28;20009;-46
2023/10/10 15:01:17;;;;;;;17.70;12.07;;;19.20;99.90;;;;;;5037624;28;20031;-46
2023/10/10 15:03:43;;;;;;;19.17;13.38;;;19.20;99.90;;;;;;5044185;28;20505;-46
2023/10/10 15:06:09;;;;;;;14.93;12.00;;;19.20;99.90;;;;;;5036007;28;20037;-46
2023/10/10 15:08:34;;;;;;;21.65;13.57;;;19.20;99.90;;;;;;5034021;28;20025;-46
2023/10/10 15:11:00;;;;;;;16.15;12.02;;;19.20;99.90;;;;;;5043466;28;20024;-45
2023/10/10 15:13:26;;;;;;;15.30;11.40;;;19.20;99.90;;;;;;5039356;28;20132;-47
2023/10/10 15:15:52;;;;;;;13.65;11.35;;;19.20;99.90;;;;;;5036414;28;20471;-46
2023/10/10 15:18:18;;;;;;;15.45;12.07;;;19.20;99.90;;;;;;5036416;28;20043;-45
2023/10/10 15:20:46;;;;;;;14.95;11.02;;;19.20;99.90;;;;;;5035300;28;20105;-46
2023/10/10 15:23:21;;;;;;;15.43;11.63;;;19.20;99.90;;;;;;5048346;28;20080;-46
2023/10/10 15:25:53;;;;;;;15.45;10.88;;;19.20;99.90;;;;;;5035533;28;20427;-47
2023/10/10 15:28:18;;;;;;;17.58;13.02;;;19.30;99.90;;;;;;5036529;28;20104;-46
2023/10/10 15:30:44;;;;;;;14.68;11.57;;;19.40;99.90;;;;;;5035564;28;20447;-45
2023/10/10 15:33:10;;;;;;;13.75;11.18;;;19.40;99.90;;;;;;5042009;28;20509;-47
2023/10/10 15:35:39;;;;;;;17.08;11.40;;;19.40;99.90;;;;;;5040202;28;20104;-49
2023/10/10 15:38:09;;;;;;;13.10;11.18;;;19.40;99.90;;;;;;5038102;28;20031;-46
2023/10/10 15:40:39;;;;;;;13.23;10.93;;;19.40;99.90;;;;;;5035500;28;20025;-45
2023/10/10 15:43:05;;;;;;;13.15;10.57;;;19.40;99.90;;;;;;5041601;28;20021;-48
2023/10/10 15:45:37;;;;;;;14.40;11.65;;;19.30;99.90;;;;;;5038444;28;20030;-48
2023/10/10 15:48:03;;;;;;;15.25;10.73;;;19.30;99.90;;;;;;5035927;28;20051;-48
2023/10/10 15:50:31;;;;;;;16.80;11.70;;;19.20;99.90;;;;;;5037965;28;20062;-48
2023/10/10 15:52:57;;;;;;;15.98;11.98;;;19.10;99.90;;;;;;5034106;28;20021;-47
2023/10/10 15:55:25;;;;;;;15.63;12.65;;;19.00;99.90;;;;;;5035038;28;20143;-49
2023/10/10 15:57:52;;;;;;;27.10;14.30;;;18.90;99.90;;;;;;5034791;28;20025;-46